Flight Track Log - Related Links

Times and Time Zones

All times are in EDT time to prevent confusion due to time zone crossing. See the LXJ549 flight status page for this flight to view local times or setup timezone preferences in your user account.


Time Position Orientation Groundspeed Altitude Reporting Facility
EDT Latitude Longitude Course Direction KTS MPH feet Rate Location/Type
Sun 01:46:55 PM 40.8167 -74.2333 270° West 246 283 5,700  Level New York TRACON
Sun 01:47:55 PM 40.8833 -74.2667 339° North 283 326 6,100 200 Climbing New York TRACON
Sun 01:48:55 PM 40.9667 -74.2333 17° North 281 323 6,100 1,250 Level New York TRACON
Sun 01:49:55 PM 41.0333 -74.1833 29° Northeast 279 321 8,600 2,500 Climbing New York TRACON
Sun 01:50:55 PM 41.1000 -74.1167 37° Northeast 331 381 11,100 1,250 Climbing New York TRACON
Sun 01:51:00 PM 40.8872 -74.0001 51° Northeast  Level Estimated
Sun 01:51:55 PM 41.1667 -74.0000 53° Northeast 387 445 11,100  Level New York TRACON
Sun 01:53:52 PM 41.2258 -73.7456 73° East 405 466 15,900 2,034 Climbing Boston Center
Sun 01:54:52 PM 41.2606 -73.6053 72° East 400 460 17,100 550 Climbing Boston Center
Sun 01:55:52 PM 41.2997 -73.4569 71° East 405 466 17,000 -50 Descending Boston Center
Sun 01:56:52 PM 41.3361 -73.3275 69° East 405 466 17,000  Level Boston Center
Sun 01:57:52 PM 41.3769 -73.1703 71° East 405 466 17,000 -50 Level Boston Center
Sun 01:58:52 PM 41.4233 -73.0464 63° Northeast 405 466 16,900 -1,000 Descending Boston Center
Sun 01:59:52 PM 41.4867 -72.9056 59° Northeast 405 466 15,000 -950 Descending Boston Center
Sun 02:00:52 PM 41.5453 -72.7978 54° Northeast 399 459 15,000  Level Boston Center
Sun 02:01:52 PM 41.6269 -72.6844 46° Northeast 387 445 15,000  Level Boston Center
Sun 02:02:52 PM 41.6981 -72.5875 45° Northeast 387 445 15,000 -242 Level Boston Center
Sun 02:03:31 PM 41.7564 -72.5069 46° Northeast 397 457 14,600 -1,000 Descending Boston Center
Sun 02:04:04 PM 41.7836 -72.4708 45° Northeast 387 445 13,800 -2,323 Descending Boston Center
Sun 02:05:04 PM 41.8711 -72.3453 47° Northeast 382 440 11,000 -1,950 Descending Boston Center
Sun 02:06:04 PM 41.9167 -72.2475 58° Northeast 359 413 9,900 -1,267 Descending Boston Center
Sun 02:06:34 PM 41.9458 -72.1861 57° Northeast 312 359 9,100 -1,800 Descending Boston Center
Sun 02:07:04 PM 41.9750 -72.1553 38° Northeast 309 356 8,100 -2,133 Descending Boston Center
Sun 02:08:04 PM 42.0289 -72.0992 38° Northeast 272 313 5,900 -1,691 Descending Boston Center
Sun 02:08:54 PM 42.0828 -72.0400 39° Northeast 268 308 5,000 -873 Descending Boston Center
Sun 02:09:54 PM 42.1411 -71.9781 38° Northeast 267 307 4,300 -522 Descending Boston Center
Sun 02:10:49 PM 42.1950 -71.9217 38° Northeast 265 305 4,000 -138 Descending Boston Center
Sun 02:12:04 PM 42.2656 -71.8453 39° Northeast 267 307 4,000  Level Boston Center
Sun 02:13:04 PM 42.3172 -71.7886 39° Northeast 267 307 4,000  Level Boston Center
Sun 02:14:04 PM 42.3750 -71.7067 46° Northeast 267 307 4,000  Level Boston Center
Sun 02:15:04 PM 42.4100 -71.6303 58° Northeast 267 307 4,000  Level Boston Center
Sun 02:16:04 PM 42.4572 -71.5339 56° Northeast 272 313 4,000 -170 Level Boston Center
Sun 02:16:50 PM 42.4833 -71.4667 62° Northeast 266 306 3,700 -1,017 Descending KA90
Sun 02:18:02 PM 42.5167 -71.3500 69° East 254 292 2,000 -816 Descending KA90
Sun 02:18:55 PM 42.5167 -71.2833 90° East 219 252 2,000  Level KA90
Sun 02:19:56 PM 42.5167 -71.2167 90° East 154 177 2,000 -298 Level KA90
Sun 02:20:56 PM 42.4667 -71.2000 166° South 147 169 1,400 -714 Descending KA90
Sun 02:22:02 PM 42.4667 -71.2500 270° West 128 147 500 4,080 Descending KA90
Sun 02:24:16 PM 42.4428 -71.3092 241° Southwest 81 93 15,000 6,493 Climbing Boston Center

Login

Don't have an account? Register now (free) for customized features, flight alerts, and more!